Corona Splendor — 7JRD — position and weather

sailwx.info

Track history (hours):
 
Tides and Currents Weather Stations Pressure Air Temp Water Temp Dewpoint Dewpoint Depression Visibility Wind Speed Wind Dir Waves Ship Positions

Corona Splendor

Last reported at 2018-Feb-11 01:06 UTC. Time now 2018-Feb-23 06:17 UTC.
Position N 41°15' E 141°48'.
Warning: this ship's position is 12 days out of date.

Length 229 m; draft 8.5 m.

Type: Ship. MMSI: 432969000.

Date/timePositionNaut miles runAvg speedWind from/ knotsBaromVisibWave heightAir tempDewpointWater temp
2018-Feb-11 01:06N 41°15' E 141°48'913.6
2018-Feb-11 00:27N 41°23' E 141°43'613.6
2018-Feb-11 00:00N 41°28' E 141°39'713.0
2018-Feb-10 23:30N 41°33' E 141°33'714.0
2018-Feb-10 23:00N 41°35' E 141°24'613.1
2018-Feb-10 22:31N 41°36' E 141°15'612.2
2018-Feb-10 22:01N 41°36' E 141°07'714.3
2018-Feb-10 21:30N 41°37' E 140°58'713.8
2018-Feb-10 21:00N 41°35' E 140°49'713.8
2018-Feb-10 20:30N 41°31' E 140°42'714.0
2018-Feb-10 20:00N 41°27' E 140°34'714.4
2018-Feb-10 19:30N 41°23' E 140°26'714.9
2018-Feb-10 19:00N 41°19' E 140°18'  
Track history (hours):
 
Tides and Currents Weather Stations Pressure Air Temp Water Temp Dewpoint Dewpoint Depression Visibility Wind Speed Wind Dir Waves Ship Positions

Corona Splendor

Last reported at 2018-Feb-11 01:06 UTC. Time now 2018-Feb-23 06:17 UTC.
Position N 41°15' E 141°48'.
Warning: this ship's position is 12 days out of date.

Length 229 m; draft 8.5 m.

Type: Ship. MMSI: 432969000.

Date/timePositionNaut miles runAvg speedWind from/ knotsBaromVisibWave heightAir tempDewpointWater temp
2018-Feb-11 01:06N 41°15' E 141°48'913.6
2018-Feb-11 00:27N 41°23' E 141°43'613.6
2018-Feb-11 00:00N 41°28' E 141°39'713.0
2018-Feb-10 23:30N 41°33' E 141°33'714.0
2018-Feb-10 23:00N 41°35' E 141°24'613.1
2018-Feb-10 22:31N 41°36' E 141°15'612.2
2018-Feb-10 22:01N 41°36' E 141°07'714.3
2018-Feb-10 21:30N 41°37' E 140°58'713.8
2018-Feb-10 21:00N 41°35' E 140°49'713.8
2018-Feb-10 20:30N 41°31' E 140°42'714.0
2018-Feb-10 20:00N 41°27' E 140°34'714.4
2018-Feb-10 19:30N 41°23' E 140°26'714.9
2018-Feb-10 19:00N 41°19' E 140°18'  

Dump ship's entire track history